sensor_id;sensor_type;location;lat;lon;timestamp;temperature;humidity
77839;SHT31;67034;43.226;27.932;2023-03-02T00:01:18;4.60;81.09
77839;SHT31;67034;43.226;27.932;2023-03-02T00:03:45;4.63;80.74
77839;SHT31;67034;43.226;27.932;2023-03-02T00:06:11;4.61;81.14
77839;SHT31;67034;43.226;27.932;2023-03-02T00:08:37;4.63;81.24
77839;SHT31;67034;43.226;27.932;2023-03-02T00:11:03;4.61;80.99
77839;SHT31;67034;43.226;27.932;2023-03-02T00:13:31;4.60;81.26
77839;SHT31;67034;43.226;27.932;2023-03-02T00:15:58;4.60;80.94
77839;SHT31;67034;43.226;27.932;2023-03-02T00:18:24;4.66;80.88
77839;SHT31;67034;43.226;27.932;2023-03-02T00:20:51;4.61;80.82
77839;SHT31;67034;43.226;27.932;2023-03-02T00:23:16;4.59;80.90
77839;SHT31;67034;43.226;27.932;2023-03-02T00:25:42;4.61;80.67
77839;SHT31;67034;43.226;27.932;2023-03-02T00:28:08;4.59;81.02
77839;SHT31;67034;43.226;27.932;2023-03-02T00:30:33;4.59;80.94
77839;SHT31;67034;43.226;27.932;2023-03-02T00:32:59;4.59;81.02
77839;SHT31;67034;43.226;27.932;2023-03-02T00:35:25;4.56;81.24
77839;SHT31;67034;43.226;27.932;2023-03-02T00:37:52;4.60;80.90
77839;SHT31;67034;43.226;27.932;2023-03-02T00:40:18;4.56;80.79
77839;SHT31;67034;43.226;27.932;2023-03-02T00:42:44;4.56;80.76
77839;SHT31;67034;43.226;27.932;2023-03-02T00:45:10;4.57;80.69
77839;SHT31;67034;43.226;27.932;2023-03-02T00:47:36;4.60;80.63
77839;SHT31;67034;43.226;27.932;2023-03-02T00:50:03;4.57;80.42
77839;SHT31;67034;43.226;27.932;2023-03-02T00:52:29;4.57;80.91
77839;SHT31;67034;43.226;27.932;2023-03-02T00:54:56;4.61;80.74
77839;SHT31;67034;43.226;27.932;2023-03-02T00:57:22;4.64;80.62
77839;SHT31;67034;43.226;27.932;2023-03-02T00:59:48;4.60;80.84
77839;SHT31;67034;43.226;27.932;2023-03-02T01:02:14;4.57;80.44
77839;SHT31;67034;43.226;27.932;2023-03-02T01:04:40;4.61;80.60
77839;SHT31;67034;43.226;27.932;2023-03-02T01:07:09;4.61;80.63
77839;SHT31;67034;43.226;27.932;2023-03-02T01:09:35;4.61;80.12
77839;SHT31;67034;43.226;27.932;2023-03-02T01:12:03;4.59;80.63
77839;SHT31;67034;43.226;27.932;2023-03-02T01:14:30;4.57;80.38
77839;SHT31;67034;43.226;27.932;2023-03-02T01:16:56;4.57;80.23
77839;SHT31;67034;43.226;27.932;2023-03-02T01:19:22;4.54;80.34
77839;SHT31;67034;43.226;27.932;2023-03-02T01:21:48;4.59;80.18
77839;SHT31;67034;43.226;27.932;2023-03-02T01:24:14;4.56;80.13
77839;SHT31;67034;43.226;27.932;2023-03-02T01:26:39;4.53;80.39
77839;SHT31;67034;43.226;27.932;2023-03-02T01:29:06;4.54;80.44
77839;SHT31;67034;43.226;27.932;2023-03-02T01:31:32;4.53;80.52
77839;SHT31;67034;43.226;27.932;2023-03-02T01:33:58;4.53;80.00
77839;SHT31;67034;43.226;27.932;2023-03-02T01:36:24;4.56;80.04
77839;SHT31;67034;43.226;27.932;2023-03-02T01:38:49;4.52;80.04
77839;SHT31;67034;43.226;27.932;2023-03-02T01:41:16;4.50;80.16
77839;SHT31;67034;43.226;27.932;2023-03-02T01:43:41;4.50;80.18
77839;SHT31;67034;43.226;27.932;2023-03-02T01:46:12;4.53;80.14
77839;SHT31;67034;43.226;27.932;2023-03-02T01:48:43;4.52;80.09
77839;SHT31;67034;43.226;27.932;2023-03-02T01:51:10;4.49;80.13
77839;SHT31;67034;43.226;27.932;2023-03-02T01:53:39;4.50;79.94
77839;SHT31;67034;43.226;27.932;2023-03-02T01:56:11;4.49;80.23
77839;SHT31;67034;43.226;27.932;2023-03-02T01:58:39;4.48;79.86
77839;SHT31;67034;43.226;27.932;2023-03-02T02:01:05;4.36;79.59
77839;SHT31;67034;43.226;27.932;2023-03-02T02:03:42;4.05;80.25
77839;SHT31;67034;43.226;27.932;2023-03-02T02:06:14;3.64;81.45
77839;SHT31;67034;43.226;27.932;2023-03-02T02:08:43;3.46;82.15
77839;SHT31;67034;43.226;27.932;2023-03-02T02:11:09;3.36;82.52
77839;SHT31;67034;43.226;27.932;2023-03-02T02:13:35;3.39;82.50
77839;SHT31;67034;43.226;27.932;2023-03-02T02:16:00;3.39;82.66
77839;SHT31;67034;43.226;27.932;2023-03-02T02:18:26;3.42;82.77
77839;SHT31;67034;43.226;27.932;2023-03-02T02:20:54;3.40;82.96
77839;SHT31;67034;43.226;27.932;2023-03-02T02:23:26;3.37;82.46
77839;SHT31;67034;43.226;27.932;2023-03-02T02:26:10;3.39;82.81
77839;SHT31;67034;43.226;27.932;2023-03-02T02:28:40;3.47;82.29
77839;SHT31;67034;43.226;27.932;2023-03-02T02:31:12;3.42;82.50
77839;SHT31;67034;43.226;27.932;2023-03-02T02:33:39;3.47;82.48
77839;SHT31;67034;43.226;27.932;2023-03-02T02:36:10;3.42;82.18
77839;SHT31;67034;43.226;27.932;2023-03-02T02:38:39;3.42;82.83
77839;SHT31;67034;43.226;27.932;2023-03-02T02:41:07;3.40;82.76
77839;SHT31;67034;43.226;27.932;2023-03-02T02:43:38;3.49;82.79
77839;SHT31;67034;43.226;27.932;2023-03-02T02:46:04;3.56;82.57
77839;SHT31;67034;43.226;27.932;2023-03-02T02:48:30;3.59;82.67
77839;SHT31;67034;43.226;27.932;2023-03-02T02:50:57;3.64;82.94
77839;SHT31;67034;43.226;27.932;2023-03-02T02:53:29;3.81;82.68
77839;SHT31;67034;43.226;27.932;2023-03-02T02:55:58;3.60;81.92
77839;SHT31;67034;43.226;27.932;2023-03-02T02:58:30;3.60;82.36
77839;SHT31;67034;43.226;27.932;2023-03-02T03:00:59;3.57;82.39
77839;SHT31;67034;43.226;27.932;2023-03-02T03:03:27;3.63;83.36
77839;SHT31;67034;43.226;27.932;2023-03-02T03:05:55;3.78;82.89
77839;SHT31;67034;43.226;27.932;2023-03-02T03:08:53;3.59;81.76
77839;SHT31;67034;43.226;27.932;2023-03-02T03:11:22;3.53;81.99
77839;SHT31;67034;43.226;27.932;2023-03-02T03:13:52;3.81;81.60
77839;SHT31;67034;43.226;27.932;2023-03-02T03:16:20;4.02;80.61
77839;SHT31;67034;43.226;27.932;2023-03-02T03:18:48;4.23;80.07
77839;SHT31;67034;43.226;27.932;2023-03-02T03:21:16;4.12;80.46
77839;SHT31;67034;43.226;27.932;2023-03-02T03:23:42;4.60;79.79
77839;SHT31;67034;43.226;27.932;2023-03-02T03:26:08;4.33;78.68
77839;SHT31;67034;43.226;27.932;2023-03-02T03:28:34;4.31;78.61
77839;SHT31;67034;43.226;27.932;2023-03-02T03:31:00;4.31;78.72
77839;SHT31;67034;43.226;27.932;2023-03-02T03:33:27;4.29;78.97
77839;SHT31;67034;43.226;27.932;2023-03-02T03:35:53;4.12;80.05
77839;SHT31;67034;43.226;27.932;2023-03-02T03:38:19;4.11;80.34
77839;SHT31;67034;43.226;27.932;2023-03-02T03:40:45;4.40;80.13
77839;SHT31;67034;43.226;27.932;2023-03-02T03:43:10;4.56;78.59
77839;SHT31;67034;43.226;27.932;2023-03-02T03:45:38;4.42;79.00
77839;SHT31;67034;43.226;27.932;2023-03-02T03:48:04;4.26;78.95
77839;SHT31;67034;43.226;27.932;2023-03-02T03:50:31;4.08;79.88
77839;SHT31;67034;43.226;27.932;2023-03-02T03:52:57;4.21;80.20
77839;SHT31;67034;43.226;27.932;2023-03-02T03:55:23;4.56;79.00
77839;SHT31;67034;43.226;27.932;2023-03-02T03:57:53;4.73;78.70
77839;SHT31;67034;43.226;27.932;2023-03-02T04:00:19;4.70;78.87
77839;SHT31;67034;43.226;27.932;2023-03-02T04:02:45;4.36;78.45
77839;SHT31;67034;43.226;27.932;2023-03-02T04:05:11;4.15;79.07
77839;SHT31;67034;43.226;27.932;2023-03-02T04:07:39;4.12;79.37
77839;SHT31;67034;43.226;27.932;2023-03-02T04:10:07;4.43;78.50
77839;SHT31;67034;43.226;27.932;2023-03-02T04:12:34;4.39;77.96
77839;SHT31;67034;43.226;27.932;2023-03-02T04:15:01;4.45;78.32
77839;SHT31;67034;43.226;27.932;2023-03-02T04:17:27;4.64;78.40
77839;SHT31;67034;43.226;27.932;2023-03-02T04:19:52;4.39;78.43
77839;SHT31;67034;43.226;27.932;2023-03-02T04:22:18;4.16;79.24
77839;SHT31;67034;43.226;27.932;2023-03-02T04:24:46;4.13;79.54
77839;SHT31;67034;43.226;27.932;2023-03-02T04:27:12;4.32;78.67
77839;SHT31;67034;43.226;27.932;2023-03-02T04:29:38;4.38;78.18
77839;SHT31;67034;43.226;27.932;2023-03-02T04:32:04;4.50;79.17
77839;SHT31;67034;43.226;27.932;2023-03-02T04:34:30;4.59;78.93
77839;SHT31;67034;43.226;27.932;2023-03-02T04:36:55;4.94;77.00
77839;SHT31;67034;43.226;27.932;2023-03-02T04:39:21;4.85;76.46
77839;SHT31;67034;43.226;27.932;2023-03-02T04:41:49;4.59;77.12
77839;SHT31;67034;43.226;27.932;2023-03-02T04:44:16;4.43;78.26
77839;SHT31;67034;43.226;27.932;2023-03-02T04:46:44;4.52;77.18
77839;SHT31;67034;43.226;27.932;2023-03-02T04:49:09;4.33;77.93
77839;SHT31;67034;43.226;27.932;2023-03-02T04:51:37;4.36;77.47
77839;SHT31;67034;43.226;27.932;2023-03-02T04:54:07;4.35;78.09
77839;SHT31;67034;43.226;27.932;2023-03-02T04:56:35;4.46;77.22
77839;SHT31;67034;43.226;27.932;2023-03-02T04:59:02;4.84;77.39
77839;SHT31;67034;43.226;27.932;2023-03-02T05:01:27;5.10;74.56
77839;SHT31;67034;43.226;27.932;2023-03-02T05:03:53;5.14;74.29
77839;SHT31;67034;43.226;27.932;2023-03-02T05:06:19;5.14;73.78
77839;SHT31;67034;43.226;27.932;2023-03-02T05:08:46;5.22;73.73
77839;SHT31;67034;43.226;27.932;2023-03-02T05:11:14;5.22;74.22
77839;SHT31;67034;43.226;27.932;2023-03-02T05:13:46;5.31;73.22
77839;SHT31;67034;43.226;27.932;2023-03-02T05:16:13;5.32;73.73
77839;SHT31;67034;43.226;27.932;2023-03-02T05:18:39;5.24;74.72
77839;SHT31;67034;43.226;27.932;2023-03-02T05:21:05;4.71;76.90
77839;SHT31;67034;43.226;27.932;2023-03-02T05:23:31;4.77;77.82
77839;SHT31;67034;43.226;27.932;2023-03-02T05:25:56;4.88;78.01
77839;SHT31;67034;43.226;27.932;2023-03-02T05:28:23;4.33;79.71
77839;SHT31;67034;43.226;27.932;2023-03-02T05:30:50;4.29;80.23
77839;SHT31;67034;43.226;27.932;2023-03-02T05:33:18;4.43;79.59
77839;SHT31;67034;43.226;27.932;2023-03-02T05:35:44;4.18;80.01
77839;SHT31;67034;43.226;27.932;2023-03-02T05:38:10;4.03;81.23
77839;SHT31;67034;43.226;27.932;2023-03-02T05:40:37;4.08;81.03
77839;SHT31;67034;43.226;27.932;2023-03-02T05:43:03;4.02;80.72
77839;SHT31;67034;43.226;27.932;2023-03-02T05:45:29;4.03;80.54
77839;SHT31;67034;43.226;27.932;2023-03-02T05:47:55;4.08;80.14
77839;SHT31;67034;43.226;27.932;2023-03-02T05:50:23;3.98;80.65
77839;SHT31;67034;43.226;27.932;2023-03-02T05:52:49;4.05;80.19
77839;SHT31;67034;43.226;27.932;2023-03-02T05:55:15;3.98;80.10
77839;SHT31;67034;43.226;27.932;2023-03-02T05:57:42;4.06;79.79
77839;SHT31;67034;43.226;27.932;2023-03-02T06:00:08;3.92;80.80
77839;SHT31;67034;43.226;27.932;2023-03-02T06:02:35;4.02;80.18
77839;SHT31;67034;43.226;27.932;2023-03-02T06:05:04;3.99;80.40
77839;SHT31;67034;43.226;27.932;2023-03-02T06:07:34;4.13;79.53
77839;SHT31;67034;43.226;27.932;2023-03-02T06:10:00;3.98;79.64
77839;SHT31;67034;43.226;27.932;2023-03-02T06:12:25;3.81;79.51
77839;SHT31;67034;43.226;27.932;2023-03-02T06:14:51;3.87;79.96
77839;SHT31;67034;43.226;27.932;2023-03-02T06:17:17;4.05;79.68
77839;SHT31;67034;43.226;27.932;2023-03-02T06:19:43;4.19;78.82
77839;SHT31;67034;43.226;27.932;2023-03-02T06:22:08;4.18;78.48
77839;SHT31;67034;43.226;27.932;2023-03-02T06:24:35;4.22;78.18
77839;SHT31;67034;43.226;27.932;2023-03-02T06:27:01;4.28;79.14
77839;SHT31;67034;43.226;27.932;2023-03-02T06:29:27;4.22;78.77
77839;SHT31;67034;43.226;27.932;2023-03-02T06:31:53;4.48;78.81
77839;SHT31;67034;43.226;27.932;2023-03-02T06:34:18;4.77;77.30
77839;SHT31;67034;43.226;27.932;2023-03-02T06:36:44;4.90;76.36
77839;SHT31;67034;43.226;27.932;2023-03-02T06:39:10;5.02;76.24
77839;SHT31;67034;43.226;27.932;2023-03-02T06:41:41;5.04;74.62
77839;SHT31;67034;43.226;27.932;2023-03-02T06:44:07;5.04;74.23
77839;SHT31;67034;43.226;27.932;2023-03-02T06:46:33;5.19;74.72
77839;SHT31;67034;43.226;27.932;2023-03-02T06:48:59;5.28;73.83
77839;SHT31;67034;43.226;27.932;2023-03-02T06:51:25;5.08;73.65
77839;SHT31;67034;43.226;27.932;2023-03-02T06:53:50;5.02;74.81
77839;SHT31;67034;43.226;27.932;2023-03-02T06:56:16;5.29;73.41
77839;SHT31;67034;43.226;27.932;2023-03-02T06:58:43;5.36;72.88
77839;SHT31;67034;43.226;27.932;2023-03-02T07:01:09;5.35;72.91
77839;SHT31;67034;43.226;27.932;2023-03-02T07:03:35;5.39;73.82
77839;SHT31;67034;43.226;27.932;2023-03-02T07:06:00;5.05;74.36
77839;SHT31;67034;43.226;27.932;2023-03-02T07:08:26;5.39;73.41
77839;SHT31;67034;43.226;27.932;2023-03-02T07:10:52;5.56;72.91
77839;SHT31;67034;43.226;27.932;2023-03-02T07:13:18;5.56;72.37
77839;SHT31;67034;43.226;27.932;2023-03-02T07:15:45;5.62;72.43
77839;SHT31;67034;43.226;27.932;2023-03-02T07:18:10;5.59;72.93
77839;SHT31;67034;43.226;27.932;2023-03-02T07:20:36;5.81;73.05
77839;SHT31;67034;43.226;27.932;2023-03-02T07:23:03;6.10;72.51
77839;SHT31;67034;43.226;27.932;2023-03-02T07:25:28;6.17;73.14
77839;SHT31;67034;43.226;27.932;2023-03-02T07:27:54;6.14;71.78
77839;SHT31;67034;43.226;27.932;2023-03-02T07:30:23;6.27;71.20
77839;SHT31;67034;43.226;27.932;2023-03-02T07:32:50;6.17;70.75
77839;SHT31;67034;43.226;27.932;2023-03-02T07:35:16;6.37;71.82
77839;SHT31;67034;43.226;27.932;2023-03-02T07:37:42;6.31;71.14
77839;SHT31;67034;43.226;27.932;2023-03-02T07:40:09;6.21;71.69
77839;SHT31;67034;43.226;27.932;2023-03-02T07:42:36;6.17;71.37
77839;SHT31;67034;43.226;27.932;2023-03-02T07:45:01;6.20;71.69
77839;SHT31;67034;43.226;27.932;2023-03-02T07:47:28;6.18;71.80
77839;SHT31;67034;43.226;27.932;2023-03-02T07:49:55;5.74;72.97
77839;SHT31;67034;43.226;27.932;2023-03-02T07:52:21;5.93;72.76
77839;SHT31;67034;43.226;27.932;2023-03-02T07:54:46;6.06;72.14
77839;SHT31;67034;43.226;27.932;2023-03-02T07:57:12;5.89;73.12
77839;SHT31;67034;43.226;27.932;2023-03-02T07:59:40;6.18;72.77
77839;SHT31;67034;43.226;27.932;2023-03-02T08:02:06;6.39;72.14
77839;SHT31;67034;43.226;27.932;2023-03-02T08:04:33;6.58;72.01
77839;SHT31;67034;43.226;27.932;2023-03-02T08:07:00;6.59;71.85
77839;SHT31;67034;43.226;27.932;2023-03-02T08:09:26;6.61;71.63
77839;SHT31;67034;43.226;27.932;2023-03-02T08:11:51;6.72;71.82
77839;SHT31;67034;43.226;27.932;2023-03-02T08:14:17;6.68;71.59
77839;SHT31;67034;43.226;27.932;2023-03-02T08:16:42;6.71;71.45
77839;SHT31;67034;43.226;27.932;2023-03-02T08:19:08;6.80;71.43
77839;SHT31;67034;43.226;27.932;2023-03-02T08:21:35;6.93;72.16
77839;SHT31;67034;43.226;27.932;2023-03-02T08:24:02;7.06;71.63
77839;SHT31;67034;43.226;27.932;2023-03-02T08:26:30;7.10;71.18
77839;SHT31;67034;43.226;27.932;2023-03-02T08:28:55;7.17;71.56
77839;SHT31;67034;43.226;27.932;2023-03-02T08:31:21;7.40;71.46
77839;SHT31;67034;43.226;27.932;2023-03-02T08:33:47;7.30;70.55
77839;SHT31;67034;43.226;27.932;2023-03-02T08:36:13;7.23;70.54
77839;SHT31;67034;43.226;27.932;2023-03-02T08:38:39;7.26;71.02
77839;SHT31;67034;43.226;27.932;2023-03-02T08:41:07;7.21;70.72
77839;SHT31;67034;43.226;27.932;2023-03-02T08:43:33;7.06;70.84
77839;SHT31;67034;43.226;27.932;2023-03-02T08:45:59;6.92;71.08
77839;SHT31;67034;43.226;27.932;2023-03-02T08:48:26;6.99;71.19
77839;SHT31;67034;43.226;27.932;2023-03-02T08:50:55;6.89;71.36
77839;SHT31;67034;43.226;27.932;2023-03-02T08:53:22;7.01;71.42
77839;SHT31;67034;43.226;27.932;2023-03-02T08:55:48;7.07;71.61
77839;SHT31;67034;43.226;27.932;2023-03-02T08:58:14;7.00;71.01
77839;SHT31;67034;43.226;27.932;2023-03-02T09:00:40;6.99;70.97
77839;SHT31;67034;43.226;27.932;2023-03-02T09:03:06;7.04;71.31
77839;SHT31;67034;43.226;27.932;2023-03-02T09:05:31;7.01;70.84
77839;SHT31;67034;43.226;27.932;2023-03-02T09:07:57;6.97;70.95
77839;SHT31;67034;43.226;27.932;2023-03-02T09:10:23;6.99;71.13
77839;SHT31;67034;43.226;27.932;2023-03-02T09:12:48;7.20;70.90
77839;SHT31;67034;43.226;27.932;2023-03-02T09:15:15;7.27;70.62
77839;SHT31;67034;43.226;27.932;2023-03-02T09:17:41;7.20;69.70
77839;SHT31;67034;43.226;27.932;2023-03-02T09:20:07;7.37;69.57
77839;SHT31;67034;43.226;27.932;2023-03-02T09:22:33;7.41;69.58
77839;SHT31;67034;43.226;27.932;2023-03-02T09:25:00;7.50;69.13
77839;SHT31;67034;43.226;27.932;2023-03-02T09:27:25;7.50;68.79
77839;SHT31;67034;43.226;27.932;2023-03-02T09:29:51;7.41;68.23
77839;SHT31;67034;43.226;27.932;2023-03-02T09:32:18;7.61;68.42
77839;SHT31;67034;43.226;27.932;2023-03-02T09:34:44;7.71;67.10
77839;SHT31;67034;43.226;27.932;2023-03-02T09:37:09;7.74;66.42
77839;SHT31;67034;43.226;27.932;2023-03-02T09:39:36;7.83;65.87
77839;SHT31;67034;43.226;27.932;2023-03-02T09:42:28;7.87;64.26
77839;SHT31;67034;43.226;27.932;2023-03-02T09:47:57;8.05;60.62
77839;SHT31;67034;43.226;27.932;2023-03-02T09:50:30;8.36;59.97
77839;SHT31;67034;43.226;27.932;2023-03-02T09:53:29;8.47;58.78
77839;SHT31;67034;43.226;27.932;2023-03-02T09:55:58;8.54;55.95
77839;SHT31;67034;43.226;27.932;2023-03-02T09:58:34;8.76;57.52
77839;SHT31;67034;43.226;27.932;2023-03-02T10:01:12;8.92;55.90
77839;SHT31;67034;43.226;27.932;2023-03-02T10:03:47;9.19;55.67
77839;SHT31;67034;43.226;27.932;2023-03-02T10:06:14;9.57;53.60
77839;SHT31;67034;43.226;27.932;2023-03-02T10:08:40;9.78;53.47
77839;SHT31;67034;43.226;27.932;2023-03-02T10:11:13;9.84;54.51
77839;SHT31;67034;43.226;27.932;2023-03-02T10:13:44;9.88;52.81
77839;SHT31;67034;43.226;27.932;2023-03-02T10:16:18;9.67;53.87
77839;SHT31;67034;43.226;27.932;2023-03-02T10:18:57;9.98;52.86
77839;SHT31;67034;43.226;27.932;2023-03-02T10:21:28;10.01;54.51
77839;SHT31;67034;43.226;27.932;2023-03-02T10:23:59;10.12;55.05
77839;SHT31;67034;43.226;27.932;2023-03-02T10:26:32;10.26;54.96
77839;SHT31;67034;43.226;27.932;2023-03-02T10:29:10;10.15;55.68
77839;SHT31;67034;43.226;27.932;2023-03-02T10:31:40;10.16;56.15
77839;SHT31;67034;43.226;27.932;2023-03-02T10:34:09;10.18;56.98
77839;SHT31;67034;43.226;27.932;2023-03-02T10:36:37;10.28;55.21
77839;SHT31;67034;43.226;27.932;2023-03-02T10:39:08;10.59;55.58
77839;SHT31;67034;43.226;27.932;2023-03-02T10:41:38;11.07;54.80
77839;SHT31;67034;43.226;27.932;2023-03-02T10:44:12;11.32;53.37
77839;SHT31;67034;43.226;27.932;2023-03-02T10:46:41;11.11;53.67
77839;SHT31;67034;43.226;27.932;2023-03-02T10:49:23;11.12;54.28
77839;SHT31;67034;43.226;27.932;2023-03-02T10:51:55;11.46;52.46
77839;SHT31;67034;43.226;27.932;2023-03-02T10:54:21;11.31;53.88
77839;SHT31;67034;43.226;27.932;2023-03-02T10:56:49;11.38;52.40
77839;SHT31;67034;43.226;27.932;2023-03-02T10:59:40;11.65;51.18
77839;SHT31;67034;43.226;27.932;2023-03-02T11:02:12;11.76;53.23
77839;SHT31;67034;43.226;27.932;2023-03-02T11:04:40;11.32;53.99
77839;SHT31;67034;43.226;27.932;2023-03-02T11:07:09;11.51;54.11
77839;SHT31;67034;43.226;27.932;2023-03-02T11:09:37;11.54;53.91
77839;SHT31;67034;43.226;27.932;2023-03-02T11:12:04;11.54;52.96
77839;SHT31;67034;43.226;27.932;2023-03-02T11:14:29;11.66;52.80
77839;SHT31;67034;43.226;27.932;2023-03-02T11:16:55;11.67;51.76
77839;SHT31;67034;43.226;27.932;2023-03-02T11:19:24;11.61;53.85
77839;SHT31;67034;43.226;27.932;2023-03-02T11:22:01;11.61;52.94
77839;SHT31;67034;43.226;27.932;2023-03-02T11:24:31;11.40;53.24
77839;SHT31;67034;43.226;27.932;2023-03-02T11:27:00;11.34;54.42
77839;SHT31;67034;43.226;27.932;2023-03-02T11:29:31;11.39;53.55
77839;SHT31;67034;43.226;27.932;2023-03-02T11:32:01;11.36;53.20
77839;SHT31;67034;43.226;27.932;2023-03-02T11:34:32;11.27;54.39
77839;SHT31;67034;43.226;27.932;2023-03-02T11:37:16;11.08;55.46
77839;SHT31;67034;43.226;27.932;2023-03-02T11:39:59;10.79;55.22
77839;SHT31;67034;43.226;27.932;2023-03-02T11:42:29;10.76;55.21
77839;SHT31;67034;43.226;27.932;2023-03-02T11:44:56;10.64;58.40
77839;SHT31;67034;43.226;27.932;2023-03-02T11:47:23;10.76;57.19
77839;SHT31;67034;43.226;27.932;2023-03-02T11:49:54;10.74;58.72
77839;SHT31;67034;43.226;27.932;2023-03-02T11:52:24;10.83;55.95
77839;SHT31;67034;43.226;27.932;2023-03-02T11:54:54;10.93;57.15
77839;SHT31;67034;43.226;27.932;2023-03-02T11:57:25;10.96;54.65
77839;SHT31;67034;43.226;27.932;2023-03-02T11:59:52;10.79;57.02
77839;SHT31;67034;43.226;27.932;2023-03-02T12:02:19;10.94;57.06
77839;SHT31;67034;43.226;27.932;2023-03-02T12:04:46;11.12;56.57
77839;SHT31;67034;43.226;27.932;2023-03-02T12:07:20;11.18;54.53
77839;SHT31;67034;43.226;27.932;2023-03-02T12:09:59;11.06;56.68
77839;SHT31;67034;43.226;27.932;2023-03-02T12:12:33;10.90;57.03
77839;SHT31;67034;43.226;27.932;2023-03-02T12:14:59;10.87;55.90
77839;SHT31;67034;43.226;27.932;2023-03-02T12:17:31;10.69;55.23
77839;SHT31;67034;43.226;27.932;2023-03-02T12:20:09;10.59;56.29
77839;SHT31;67034;43.226;27.932;2023-03-02T12:22:35;10.77;57.09
77839;SHT31;67034;43.226;27.932;2023-03-02T12:25:05;10.63;56.31
77839;SHT31;67034;43.226;27.932;2023-03-02T12:27:36;10.74;55.59
77839;SHT31;67034;43.226;27.932;2023-03-02T12:30:24;10.69;55.15
77839;SHT31;67034;43.226;27.932;2023-03-02T12:33:18;10.76;57.09
77839;SHT31;67034;43.226;27.932;2023-03-02T12:35:45;10.66;57.03
77839;SHT31;67034;43.226;27.932;2023-03-02T12:38:26;10.67;55.09
77839;SHT31;67034;43.226;27.932;2023-03-02T12:41:08;10.79;56.14
77839;SHT31;67034;43.226;27.932;2023-03-02T12:43:37;10.85;55.74
77839;SHT31;67034;43.226;27.932;2023-03-02T12:46:24;10.85;55.51
77839;SHT31;67034;43.226;27.932;2023-03-02T12:48:58;10.94;54.80
77839;SHT31;67034;43.226;27.932;2023-03-02T12:51:27;10.80;55.66
77839;SHT31;67034;43.226;27.932;2023-03-02T12:54:01;10.80;52.66
77839;SHT31;67034;43.226;27.932;2023-03-02T12:56:29;10.71;53.92
77839;SHT31;67034;43.226;27.932;2023-03-02T12:58:55;10.67;55.70
77839;SHT31;67034;43.226;27.932;2023-03-02T13:01:22;10.67;55.04
77839;SHT31;67034;43.226;27.932;2023-03-02T13:03:48;10.57;53.98
77839;SHT31;67034;43.226;27.932;2023-03-02T13:06:15;10.40;55.29
77839;SHT31;67034;43.226;27.932;2023-03-02T13:08:42;10.25;55.93
77839;SHT31;67034;43.226;27.932;2023-03-02T13:11:08;10.28;57.36
77839;SHT31;67034;43.226;27.932;2023-03-02T13:13:38;10.28;57.15
77839;SHT31;67034;43.226;27.932;2023-03-02T13:16:21;10.25;55.54
77839;SHT31;67034;43.226;27.932;2023-03-02T13:18:48;10.03;55.78
77839;SHT31;67034;43.226;27.932;2023-03-02T13:21:18;9.80;57.99
77839;SHT31;67034;43.226;27.932;2023-03-02T13:23:45;9.67;58.30
77839;SHT31;67034;43.226;27.932;2023-03-02T13:26:23;9.53;58.83
77839;SHT31;67034;43.226;27.932;2023-03-02T13:28:59;9.43;59.35
77839;SHT31;67034;43.226;27.932;2023-03-02T13:31:25;9.39;60.06
77839;SHT31;67034;43.226;27.932;2023-03-02T13:33:52;9.47;59.36
77839;SHT31;67034;43.226;27.932;2023-03-02T13:36:19;9.47;58.21
77839;SHT31;67034;43.226;27.932;2023-03-02T13:38:48;9.43;58.81
77839;SHT31;67034;43.226;27.932;2023-03-02T13:41:20;9.29;59.71
77839;SHT31;67034;43.226;27.932;2023-03-02T13:43:46;9.18;60.31
77839;SHT31;67034;43.226;27.932;2023-03-02T13:46:32;9.20;60.91
77839;SHT31;67034;43.226;27.932;2023-03-02T13:49:01;9.16;60.71
77839;SHT31;67034;43.226;27.932;2023-03-02T13:51:30;9.18;61.58
77839;SHT31;67034;43.226;27.932;2023-03-02T13:53:58;9.19;61.28
77839;SHT31;67034;43.226;27.932;2023-03-02T13:56:27;9.23;61.23
77839;SHT31;67034;43.226;27.932;2023-03-02T13:58:54;9.13;61.65
77839;SHT31;67034;43.226;27.932;2023-03-02T14:01:20;9.06;61.08
77839;SHT31;67034;43.226;27.932;2023-03-02T14:03:47;9.16;61.74
77839;SHT31;67034;43.226;27.932;2023-03-02T14:06:13;9.03;61.81
77839;SHT31;67034;43.226;27.932;2023-03-02T14:08:38;8.98;61.44
77839;SHT31;67034;43.226;27.932;2023-03-02T14:11:05;8.85;62.56
77839;SHT31;67034;43.226;27.932;2023-03-02T14:13:35;8.92;62.25
77839;SHT31;67034;43.226;27.932;2023-03-02T14:16:02;8.88;62.13
77839;SHT31;67034;43.226;27.932;2023-03-02T14:18:33;8.89;62.60
77839;SHT31;67034;43.226;27.932;2023-03-02T14:21:02;8.84;61.96
77839;SHT31;67034;43.226;27.932;2023-03-02T14:23:28;8.74;61.52
77839;SHT31;67034;43.226;27.932;2023-03-02T14:25:54;8.76;61.64
77839;SHT31;67034;43.226;27.932;2023-03-02T14:28:24;8.60;62.14
77839;SHT31;67034;43.226;27.932;2023-03-02T14:30:53;8.57;62.23
77839;SHT31;67034;43.226;27.932;2023-03-02T14:33:20;8.61;61.81
77839;SHT31;67034;43.226;27.932;2023-03-02T14:35:47;8.53;62.43
77839;SHT31;67034;43.226;27.932;2023-03-02T14:38:15;8.43;62.73
77839;SHT31;67034;43.226;27.932;2023-03-02T14:40:40;8.40;63.49
77839;SHT31;67034;43.226;27.932;2023-03-02T14:43:08;8.43;63.00
77839;SHT31;67034;43.226;27.932;2023-03-02T14:45:34;8.33;62.99
77839;SHT31;67034;43.226;27.932;2023-03-02T14:47:59;8.40;61.84
77839;SHT31;67034;43.226;27.932;2023-03-02T14:50:25;8.36;62.49
77839;SHT31;67034;43.226;27.932;2023-03-02T14:52:53;8.17;62.73
77839;SHT31;67034;43.226;27.932;2023-03-02T14:55:23;8.05;63.19
77839;SHT31;67034;43.226;27.932;2023-03-02T14:57:52;8.10;63.46
77839;SHT31;67034;43.226;27.932;2023-03-02T15:00:19;7.99;63.53
77839;SHT31;67034;43.226;27.932;2023-03-02T15:02:45;7.96;63.90
77839;SHT31;67034;43.226;27.932;2023-03-02T15:05:11;7.87;63.20
77839;SHT31;67034;43.226;27.932;2023-03-02T15:07:37;7.86;64.25
77839;SHT31;67034;43.226;27.932;2023-03-02T15:10:04;7.83;63.61
77839;SHT31;67034;43.226;27.932;2023-03-02T15:12:31;7.85;63.60
77839;SHT31;67034;43.226;27.932;2023-03-02T15:14:58;7.89;63.56
77839;SHT31;67034;43.226;27.932;2023-03-02T15:17:23;7.75;64.63
77839;SHT31;67034;43.226;27.932;2023-03-02T15:19:49;7.55;65.44
77839;SHT31;67034;43.226;27.932;2023-03-02T15:22:15;7.64;65.43
77839;SHT31;67034;43.226;27.932;2023-03-02T15:24:40;7.56;66.03
77839;SHT31;67034;43.226;27.932;2023-03-02T15:27:06;7.48;66.53
77839;SHT31;67034;43.226;27.932;2023-03-02T15:29:33;7.52;66.64
77839;SHT31;67034;43.226;27.932;2023-03-02T15:31:59;7.52;67.39
77839;SHT31;67034;43.226;27.932;2023-03-02T15:34:24;7.62;66.36
77839;SHT31;67034;43.226;27.932;2023-03-02T15:36:50;7.65;67.41